This is the latest recevied weather packets stored in our database for station/object NEWPRT. If no packets are shown the sender has not sent any weather packets the latest 10 day(s).
| Time | Temp. | Humidity | Pressure | Rain* | Wind** | Luminosity | Snow |
|---|---|---|---|---|---|---|---|
| 1778076249 | - | 65% | 1021.9 hPa | 0 mm | - | - | - |
| 1778075927 | - | 65% | 1021.8 hPa | 0 mm | - | - | - |
| 1778075606 | - | 65% | 1021.7 hPa | 0 mm | - | - | - |
| 1778075281 | - | 65% | 1021.4 hPa | 0 mm | - | - | - |
| 1778074958 | - | 65% | 1021.4 hPa | 0 mm | - | - | - |
| 1778074635 | - | 65% | 1021.4 hPa | 0 mm | - | - | - |
| 1778074311 | - | 62% | 1020.9 hPa | 0 mm | - | - | - |
| 1778073990 | - | 63% | 1020.8 hPa | 0 mm | - | - | - |
| 1778073666 | - | 63% | 1021.2 hPa | 0 mm | - | - | - |
| 1778073342 | - | 67% | 1021.5 hPa | 0 mm | - | - | - |
| 1778073020 | - | 63% | 1021.1 hPa | 0 mm | - | - | - |
| 1778072697 | - | 63% | 1021 hPa | 0 mm | - | - | - |
| 1778072373 | - | 63% | 1020.8 hPa | 0 mm | - | - | - |
| 1778072050 | - | 66% | 1021.2 hPa | 0 mm | - | - | - |
| 1778071727 | - | 66% | 1021.1 hPa | 0 mm | - | - | - |
| 1778071404 | - | 66% | 1021 hPa | 0 mm | - | - | - |
| 1778071081 | - | 66% | 1021 hPa | 0 mm | - | - | - |
| 1778070759 | - | 63% | 1020.5 hPa | 0 mm | - | - | - |
| 1778070436 | - | 64% | 1020.5 hPa | 0 mm | - | - | - |
| 1778070113 | - | 65% | 1020.3 hPa | 0 mm | - | - | - |
| 1778069789 | - | 67% | 1020.6 hPa | 0 mm | - | - | - |
| 1778069467 | - | 66% | 1020.9 hPa | 0 mm | - | - | - |
| 1778069144 | - | 66% | 1020.8 hPa | 0 mm | - | - | - |
| 1778068820 | - | 66% | 1020.6 hPa | 0 mm | - | - | - |
| 1778068497 | - | 66% | 1020.9 hPa | 0 mm | - | - | - |
* Rain latest hour (hover to see other rain measurements)
** Current wind speed in m/s (hover to see current wind gust speed)